Louveira, Brazil
Current Conditions -  °F | °C
As of 2:00 PM on Wednesday 26 Nov 2014 (Local Time) from SBKP Reporting Station
Light Rain Light Rain  
Wind Chill: 77°   Ceiling: Unl
Heat Index: NA   Visibility: 6mi
Dew Point: NA   Wind: 7mph
Humidity: NA   Direction: 290°WNW
Pressure: 29.85"   Gusts: NA
Location:  23.09°S, 46.95°W
Report Text: SBKP 261600Z 29006KT 9999 4500N -RA SCT030 FEW045TCU SCT100 25/21 Q1011
Loading
Personal Weather Stations






























Interactive Weather Map New forecast layout! Learn more

10-Day Weather Forecast

Advertisements
Track Severe Weather on mobile